Portada
METAR-TAF:

METAR-TAF

Aeropuertos :

Apalachicola, Florida, Estados Unidos

latitud: 29-43-37N, longitud: 085-01-29W, altitud: 6 m

Observación

El informe se hizo hace 36 minutos, a las 19:53 UTC
Viento 19 kt del oeste con ráfagas de 26 kt
Temperatura 21°C
Humedad 35%
Presión 1014 hPa
Visibilidad: 16.1 km
Cielo despejado

METAR: KAAF 201953Z AUTO 28019G26KT 10SM CLR 21/05 A2993 RMK AO2 PK WND 30031/1858 SLP134 T02060050 $

Hora: 16:29 (20:29 UTC)


TAF: falta

Observaciones y pronósticos meteorológicos de más de 4000 aeropuertos (mensajes METAR y TAF).

Los puntos amarillos y rojos representan las estaciones disponibles.

Ponga el ratón en el punto deseado para ver el nombre de la estación.

Haga clic para ver las observaciones y los pronósticos meteorológicos.

Para cambiar el mapa : haga clic en los botones verdes con una cruz de color negro para hacer un zoom, en el botón verde con un guión para alejar o en las flechas verdes para mapas adyacentes.


METAR-TAF: